createdAt,value
2018-02-18T00:01:37.736Z,-0.28
2018-02-18T00:04:06.064Z,-0.28
2018-02-18T00:06:34.388Z,-0.25
2018-02-18T00:09:02.840Z,-0.20
2018-02-18T00:11:32.315Z,-0.24
2018-02-18T00:14:00.637Z,-0.24
2018-02-18T00:16:29.044Z,-0.16
2018-02-18T00:18:57.377Z,-0.18
2018-02-18T00:21:26.049Z,-0.19
2018-02-18T00:23:54.460Z,-0.23
2018-02-18T00:26:22.793Z,-0.19
2018-02-18T00:28:51.168Z,-0.14
2018-02-18T00:31:19.492Z,-0.15
2018-02-18T00:33:47.815Z,-0.15
2018-02-18T00:36:16.920Z,-0.21
2018-02-18T00:38:45.220Z,-0.28
2018-02-18T00:41:13.592Z,-0.29
2018-02-18T00:43:42.691Z,-0.32
2018-02-18T00:46:11.780Z,-0.30
2018-02-18T00:48:41.097Z,-0.27
2018-02-18T00:51:09.441Z,-0.25
2018-02-18T00:53:38.410Z,-0.25
2018-02-18T00:56:08.932Z,-0.23
2018-02-18T00:58:37.772Z,-0.24
2018-02-18T01:01:06.096Z,-0.28
2018-02-18T01:03:34.456Z,-0.39
2018-02-18T01:06:02.882Z,-0.36
2018-02-18T01:08:32.559Z,-0.39
2018-02-18T01:11:01.012Z,-0.51
2018-02-18T01:13:29.342Z,-0.51
2018-02-18T01:15:57.721Z,-0.43
2018-02-18T01:18:26.048Z,-0.39
2018-02-18T01:20:54.388Z,-0.46
2018-02-18T01:23:23.808Z,-0.42
2018-02-18T01:25:52.353Z,-0.42
2018-02-18T01:28:20.643Z,-0.41
2018-02-18T01:30:49.029Z,-0.40
2018-02-18T01:33:18.116Z,-0.44
2018-02-18T01:35:46.444Z,-0.41
2018-02-18T01:38:14.798Z,-0.28
2018-02-18T01:40:43.125Z,-0.21
2018-02-18T01:43:11.440Z,-0.28
2018-02-18T01:45:39.789Z,-0.13
2018-02-18T01:48:08.113Z,-0.24
2018-02-18T01:50:38.940Z,-0.27
2018-02-18T01:53:07.270Z,-0.24
2018-02-18T01:55:35.595Z,-0.19
2018-02-18T01:58:04.596Z,-0.18
2018-02-18T02:00:32.920Z,-0.24
2018-02-18T02:03:01.244Z,-0.20
2018-02-18T02:05:30.060Z,-0.21
2018-02-18T02:07:58.382Z,-0.02
2018-02-18T02:10:26.708Z,-0.15
2018-02-18T02:12:55.083Z,-0.22
2018-02-18T02:15:23.422Z,-0.28
2018-02-18T02:17:52.355Z,-0.22
2018-02-18T02:20:20.720Z,-0.32
2018-02-18T02:22:49.046Z,-0.31
2018-02-18T02:25:17.416Z,-0.25
2018-02-18T02:27:45.755Z,-0.26
2018-02-18T02:30:14.086Z,-0.31
2018-02-18T02:32:43.212Z,-0.37
2018-02-18T02:35:11.805Z,-0.39
2018-02-18T02:37:40.183Z,-0.33
2018-02-18T02:40:08.564Z,-0.28
2018-02-18T02:42:37.428Z,-0.12
2018-02-18T02:45:05.739Z,-0.06
2018-02-18T02:47:34.137Z,-0.15
2018-02-18T02:50:02.472Z,-0.39
2018-02-18T02:52:30.845Z,-0.40
2018-02-18T02:54:59.171Z,-0.27
2018-02-18T02:57:27.548Z,-0.23
2018-02-18T02:59:56.429Z,-0.41
2018-02-18T03:02:24.758Z,-0.44
2018-02-18T03:04:53.091Z,-0.45
2018-02-18T03:07:21.457Z,-0.49
2018-02-18T03:09:50.324Z,-0.53
2018-02-18T03:12:18.648Z,-0.57
2018-02-18T03:14:48.356Z,-0.55
2018-02-18T03:17:17.486Z,-0.61
2018-02-18T03:19:45.958Z,-0.61
2018-02-18T03:22:14.336Z,-0.67
2018-02-18T03:24:43.337Z,-0.73
2018-02-18T03:27:19.744Z,-0.76
2018-02-18T03:29:48.086Z,-0.85
2018-02-18T03:32:16.413Z,-0.89
2018-02-18T03:34:44.884Z,-0.84
2018-02-18T03:37:14.758Z,-0.89
2018-02-18T03:39:43.088Z,-0.86
2018-02-18T03:42:12.225Z,-0.88
2018-02-18T03:44:41.012Z,-0.88
2018-02-18T03:47:09.335Z,-0.89
2018-02-18T03:49:37.697Z,-0.96
2018-02-18T03:52:06.028Z,-1.08
2018-02-18T03:54:34.384Z,-1.16
2018-02-18T03:57:03.476Z,-1.23
2018-02-18T03:59:33.075Z,-1.29
2018-02-18T04:02:01.430Z,-1.33
2018-02-18T04:04:29.754Z,-1.36
2018-02-18T04:06:58.133Z,-1.24
2018-02-18T04:09:26.465Z,-1.16
2018-02-18T04:11:54.791Z,-0.98
2018-02-18T04:14:23.917Z,-0.93
2018-02-18T04:16:52.245Z,-0.77
2018-02-18T04:19:21.748Z,-0.68
2018-02-18T04:21:50.092Z,-0.63
2018-02-18T04:24:18.560Z,-0.68
2018-02-18T04:26:47.182Z,-0.76
2018-02-18T04:29:15.776Z,-0.66
2018-02-18T04:31:45.111Z,-0.61
2018-02-18T04:34:13.455Z,-0.73
2018-02-18T04:36:41.896Z,-0.85
2018-02-18T04:39:10.229Z,-0.83
2018-02-18T04:41:38.555Z,-0.71
2018-02-18T04:44:07.113Z,-0.71
2018-02-18T04:46:35.913Z,-0.96
2018-02-18T04:49:04.373Z,-1.12
2018-02-18T04:51:32.705Z,-1.16
2018-02-18T04:54:01.076Z,-1.16
2018-02-18T04:56:29.413Z,-1.16
2018-02-18T04:58:57.749Z,-1.19
2018-02-18T05:01:26.890Z,-1.22
2018-02-18T05:03:55.250Z,-1.22
2018-02-18T05:06:23.593Z,-1.24
2018-02-18T05:08:51.957Z,-1.22
2018-02-18T05:11:20.289Z,-1.20
2018-02-18T05:13:48.695Z,-1.21
2018-02-18T05:16:17.024Z,-1.16
2018-02-18T05:18:45.365Z,-1.17
2018-02-18T05:21:13.728Z,-1.13
2018-02-18T05:23:42.059Z,-0.97
2018-02-18T05:26:10.396Z,-0.94
2018-02-18T05:28:39.057Z,-0.91
2018-02-18T05:31:08.712Z,-0.88
2018-02-18T05:33:37.072Z,-0.86
2018-02-18T05:36:05.428Z,-0.87
2018-02-18T05:38:35.114Z,-0.73
2018-02-18T05:41:03.448Z,-0.66
2018-02-18T05:43:31.829Z,-0.64
2018-02-18T05:46:00.149Z,-0.68
2018-02-18T05:48:28.476Z,-0.76
2018-02-18T05:50:56.847Z,-0.79
2018-02-18T05:53:25.204Z,-0.50
2018-02-18T05:55:53.541Z,-0.42
2018-02-18T05:58:21.906Z,-0.40
2018-02-18T06:00:50.245Z,-0.40
2018-02-18T06:03:18.622Z,-0.41
2018-02-18T06:05:46.956Z,-0.49
2018-02-18T06:08:16.043Z,-0.58
2018-02-18T06:10:44.828Z,-0.59
2018-02-18T06:13:18.960Z,-0.44
2018-02-18T06:15:47.412Z,-0.36
2018-02-18T06:18:16.227Z,-0.31
2018-02-18T06:20:44.548Z,-0.36
2018-02-18T06:23:12.920Z,-0.29
2018-02-18T06:25:41.353Z,-0.37
2018-02-18T06:28:11.005Z,-0.51
2018-02-18T06:30:39.328Z,-0.62
2018-02-18T06:33:08.344Z,-0.64
2018-02-18T06:35:36.674Z,-0.88
2018-02-18T06:38:05.008Z,-0.92
2018-02-18T06:40:33.721Z,-1.02
2018-02-18T06:43:02.414Z,-0.97
2018-02-18T06:45:30.752Z,-1.00
2018-02-18T06:47:59.123Z,-0.92
2018-02-18T06:50:28.225Z,-0.89
2018-02-18T06:52:57.866Z,-0.87
2018-02-18T06:55:26.215Z,-0.86
2018-02-18T06:57:55.312Z,-0.83
2018-02-18T07:00:24.457Z,-0.66
2018-02-18T07:02:52.783Z,-0.71
2018-02-18T07:05:21.118Z,-0.68
2018-02-18T07:07:49.489Z,-0.66
2018-02-18T07:10:18.591Z,-0.44
2018-02-18T07:12:46.932Z,-0.26
2018-02-18T07:15:15.285Z,-0.15
2018-02-18T07:17:43.644Z,-0.06
2018-02-18T07:20:11.969Z,-0.03
2018-02-18T07:22:41.127Z,0.00
2018-02-18T07:25:09.778Z,-0.08
2018-02-18T07:27:38.108Z,-0.31
2018-02-18T07:30:07.297Z,-0.45
2018-02-18T07:32:36.577Z,-0.37
2018-02-18T07:35:06.953Z,-0.23
2018-02-18T07:37:35.810Z,-0.15
2018-02-18T07:40:04.144Z,-0.16
2018-02-18T07:42:32.745Z,-0.35
2018-02-18T07:45:01.168Z,-0.41
2018-02-18T07:47:29.560Z,-0.42
2018-02-18T07:49:58.016Z,-0.32
2018-02-18T07:52:26.433Z,0.01
2018-02-18T07:54:54.793Z,0.15
2018-02-18T07:57:23.136Z,0.26
2018-02-18T07:59:51.450Z,0.09
2018-02-18T08:02:21.752Z,0.17
2018-02-18T08:04:50.783Z,0.27
2018-02-18T08:07:19.108Z,0.36
2018-02-18T08:09:47.512Z,0.55
2018-02-18T08:12:16.256Z,0.67
2018-02-18T08:14:45.573Z,0.73
2018-02-18T08:17:13.940Z,0.79
2018-02-18T08:19:42.259Z,0.90
2018-02-18T08:22:10.580Z,1.05
2018-02-18T08:24:38.925Z,1.10
2018-02-18T08:27:07.307Z,1.06
2018-02-18T08:29:35.686Z,1.13
2018-02-18T08:32:06.200Z,1.12
2018-02-18T08:34:35.096Z,1.26
2018-02-18T08:37:03.657Z,1.33
2018-02-18T08:39:31.995Z,1.20
2018-02-18T08:42:00.376Z,1.07
2018-02-18T08:44:28.893Z,1.14
2018-02-18T08:46:57.206Z,1.35
2018-02-18T08:49:25.577Z,1.47
2018-02-18T08:51:53.956Z,1.46
2018-02-18T08:54:22.272Z,1.72
2018-02-18T08:56:50.738Z,1.68
2018-02-18T08:59:19.064Z,1.74
2018-02-18T09:01:47.377Z,1.70
2018-02-18T09:04:16.741Z,1.52
2018-02-18T09:06:45.064Z,1.58
2018-02-18T09:09:13.378Z,1.95
2018-02-18T09:11:41.740Z,2.09
2018-02-18T09:14:10.287Z,2.65
2018-02-18T09:16:38.602Z,2.90
2018-02-18T09:19:06.992Z,2.56
2018-02-18T09:21:35.333Z,2.99
2018-02-18T09:24:03.663Z,3.21
2018-02-18T09:26:32.032Z,3.62
2018-02-18T09:29:01.464Z,4.16
2018-02-18T09:31:30.464Z,4.30
2018-02-18T09:33:58.806Z,4.98
2018-02-18T09:36:27.120Z,4.70
2018-02-18T09:38:55.516Z,5.53
2018-02-18T09:41:23.854Z,6.13
2018-02-18T09:43:52.168Z,5.98
2018-02-18T09:46:21.288Z,4.34
2018-02-18T09:48:49.598Z,5.38
2018-02-18T09:51:17.928Z,5.21
2018-02-18T09:53:47.311Z,4.75
2018-02-18T09:56:15.703Z,5.27
2018-02-18T09:58:44.076Z,5.45
2018-02-18T10:01:12.646Z,6.78
2018-02-18T10:03:41.000Z,6.31
2018-02-18T10:06:09.800Z,6.30
2018-02-18T10:08:51.302Z,5.12
2018-02-18T10:11:20.134Z,5.55
2018-02-18T10:13:48.604Z,5.52
2018-02-18T10:16:17.447Z,6.03
2018-02-18T10:18:45.747Z,6.79
2018-02-18T10:21:14.064Z,7.59
2018-02-18T10:23:43.146Z,8.12
2018-02-18T10:26:11.454Z,8.16
2018-02-18T10:28:40.394Z,7.83
2018-02-18T10:31:08.800Z,8.15
2018-02-18T10:33:37.124Z,8.45
2018-02-18T10:36:05.433Z,7.05
2018-02-18T10:38:34.396Z,6.74
2018-02-18T10:41:02.704Z,6.56
2018-02-18T10:43:31.601Z,6.20
2018-02-18T10:46:00.194Z,5.85
2018-02-18T10:48:31.445Z,5.28
2018-02-18T10:50:59.759Z,5.14
2018-02-18T10:53:28.110Z,4.45
2018-02-18T10:55:56.437Z,4.35
2018-02-18T10:58:24.961Z,4.66
2018-02-18T11:00:53.288Z,4.51
2018-02-18T11:03:25.560Z,4.56
2018-02-18T11:05:54.141Z,4.04
2018-02-18T11:08:22.452Z,3.55
2018-02-18T11:10:50.884Z,3.31
2018-02-18T11:13:19.974Z,3.37
2018-02-18T11:15:49.212Z,2.70
2018-02-18T11:18:17.789Z,3.07
2018-02-18T11:20:48.903Z,3.31
2018-02-18T11:23:17.461Z,3.67
2018-02-18T11:25:45.782Z,4.42
2018-02-18T11:28:14.111Z,4.00
2018-02-18T11:30:42.513Z,4.30
2018-02-18T11:33:11.292Z,4.55
2018-02-18T11:35:40.225Z,4.48
2018-02-18T11:38:08.584Z,3.87
2018-02-18T11:40:37.620Z,4.12
2018-02-18T11:43:06.471Z,4.08
2018-02-18T11:45:35.879Z,4.38
2018-02-18T11:48:04.453Z,4.80
2018-02-18T11:50:37.356Z,5.06
2018-02-18T11:53:06.891Z,5.25
2018-02-18T11:55:35.356Z,5.23
2018-02-18T11:58:03.673Z,5.26
2018-02-18T12:00:32.388Z,4.92
2018-02-18T12:03:00.761Z,4.58
2018-02-18T12:05:30.805Z,4.56
2018-02-18T12:07:59.185Z,4.78
2018-02-18T12:10:27.552Z,4.61
2018-02-18T12:12:55.911Z,4.74
2018-02-18T12:15:24.223Z,4.64
2018-02-18T12:17:52.573Z,4.79
2018-02-18T12:20:20.884Z,4.72
2018-02-18T12:25:23.767Z,4.43
2018-02-18T12:27:52.116Z,4.37
2018-02-18T12:30:20.432Z,4.42
2018-02-18T12:32:48.805Z,4.27
2018-02-18T12:35:17.792Z,3.86
2018-02-18T12:37:46.141Z,4.05
2018-02-18T12:40:14.457Z,4.34
2018-02-18T12:42:42.008Z,4.60
2018-02-18T12:45:10.601Z,4.86
2018-02-18T12:47:40.077Z,5.15
2018-02-18T12:50:08.402Z,5.24
2018-02-18T12:52:36.711Z,4.96
2018-02-18T12:55:05.056Z,4.85
2018-02-18T12:57:33.813Z,4.99
2018-02-18T13:00:02.168Z,4.33
2018-02-18T13:02:30.529Z,4.07
2018-02-18T13:04:58.840Z,4.74
2018-02-18T13:07:27.189Z,5.02
2018-02-18T13:09:55.503Z,5.78
2018-02-18T13:12:24.610Z,6.03
2018-02-18T13:14:52.984Z,5.50
2018-02-18T13:17:21.311Z,4.41
2018-02-18T13:19:49.753Z,4.34
2018-02-18T13:22:19.970Z,4.83
2018-02-18T13:24:48.290Z,5.33
2018-02-18T13:27:16.604Z,5.63
2018-02-18T13:29:45.665Z,5.22
2018-02-18T13:32:13.974Z,4.83
2018-02-18T13:34:42.305Z,4.67
2018-02-18T13:37:11.118Z,4.45
2018-02-18T13:39:39.426Z,4.39
2018-02-18T13:42:07.816Z,4.53
2018-02-18T13:44:36.186Z,4.41
2018-02-18T13:47:05.072Z,4.40
2018-02-18T13:49:33.617Z,4.80
2018-02-18T13:52:02.588Z,4.72
2018-02-18T13:54:31.059Z,4.72
2018-02-18T13:56:59.400Z,4.68
2018-02-18T13:59:27.721Z,4.33
2018-02-18T14:01:56.029Z,4.23
2018-02-18T14:04:24.436Z,4.07
2018-02-18T14:06:52.804Z,3.84
2018-02-18T14:09:21.252Z,3.50
2018-02-18T14:11:50.540Z,3.43
2018-02-18T14:14:19.675Z,3.12
2018-02-18T14:16:47.988Z,2.84
2018-02-18T14:19:16.303Z,2.68
2018-02-18T14:21:44.656Z,2.89
2018-02-18T14:24:12.976Z,2.89
2018-02-18T14:26:41.369Z,2.54
2018-02-18T14:29:09.681Z,2.65
2018-02-18T14:31:40.231Z,2.92
2018-02-18T14:34:08.593Z,2.96
2018-02-18T14:36:36.978Z,3.05
2018-02-18T14:39:06.057Z,2.98
2018-02-18T14:41:52.881Z,2.86
2018-02-18T14:44:38.730Z,2.95
2018-02-18T14:47:24.592Z,3.00
2018-02-18T14:50:10.462Z,2.72
2018-02-18T14:52:56.459Z,2.78
2018-02-18T14:55:42.996Z,2.75
2018-02-18T14:58:11.719Z,2.72
2018-02-18T15:00:40.437Z,2.60
2018-02-18T15:03:08.757Z,2.49
2018-02-18T15:05:37.157Z,2.19
2018-02-18T15:08:05.483Z,2.31
2018-02-18T15:10:33.791Z,2.26
2018-02-18T15:13:02.182Z,2.35
2018-02-18T15:15:30.805Z,2.39
2018-02-18T15:17:59.701Z,2.28
2018-02-18T15:20:28.248Z,2.23
2018-02-18T15:22:56.560Z,2.33
2018-02-18T15:25:24.893Z,2.00
2018-02-18T15:27:53.664Z,1.94
2018-02-18T15:30:22.000Z,1.88
2018-02-18T15:32:50.335Z,1.99
2018-02-18T15:35:18.702Z,2.06
2018-02-18T15:37:47.044Z,1.80
2018-02-18T15:40:16.157Z,1.96
2018-02-18T15:42:44.585Z,2.01
2018-02-18T15:45:12.996Z,1.92
2018-02-18T15:47:41.555Z,1.76
2018-02-18T15:50:10.276Z,1.80
2018-02-18T15:52:39.987Z,1.68
2018-02-18T15:55:08.597Z,1.54
2018-02-18T15:57:37.038Z,1.66
2018-02-18T16:00:05.371Z,1.78
2018-02-18T16:02:33.740Z,1.79
2018-02-18T16:05:02.701Z,1.78
2018-02-18T16:07:31.061Z,1.71
2018-02-18T16:09:59.422Z,1.62
2018-02-18T16:12:27.851Z,1.64
2018-02-18T16:14:56.210Z,1.68
2018-02-18T16:17:24.566Z,1.69
2018-02-18T16:19:52.974Z,1.66
2018-02-18T16:22:21.308Z,1.67
2018-02-18T16:24:49.715Z,1.60
2018-02-18T16:27:18.166Z,1.62
2018-02-18T16:29:46.526Z,1.57
2018-02-18T16:32:14.876Z,1.61
2018-02-18T16:34:44.188Z,1.50
2018-02-18T16:37:12.542Z,1.38
2018-02-18T16:39:40.898Z,1.45
2018-02-18T16:42:09.304Z,1.47
2018-02-18T16:44:37.650Z,1.51
2018-02-18T16:47:06.033Z,1.55
2018-02-18T16:49:34.430Z,1.51
2018-02-18T16:52:03.370Z,1.48
2018-02-18T16:54:32.465Z,1.47
2018-02-18T16:57:00.871Z,1.44
2018-02-18T16:59:29.986Z,1.37
2018-02-18T17:01:58.313Z,1.37
2018-02-18T17:04:28.686Z,1.41
2018-02-18T17:06:57.001Z,1.43
2018-02-18T17:09:25.337Z,1.43
2018-02-18T17:11:53.745Z,1.34
2018-02-18T17:14:22.074Z,1.28
2018-02-18T17:16:50.302Z,1.15
2018-02-18T17:19:18.673Z,1.05
2018-02-18T17:21:47.005Z,1.28
2018-02-18T17:24:16.849Z,1.41
2018-02-18T17:26:47.161Z,1.41
2018-02-18T17:29:15.853Z,1.43
2018-02-18T17:31:45.297Z,1.40
2018-02-18T17:34:14.385Z,1.42
2018-02-18T17:36:43.456Z,1.30
2018-02-18T17:39:12.566Z,1.35
2018-02-18T17:41:41.737Z,1.45
2018-02-18T17:44:10.051Z,1.44
2018-02-18T17:46:38.404Z,1.44
2018-02-18T17:49:06.773Z,1.20
2018-02-18T17:51:35.265Z,1.05
2018-02-18T17:54:03.592Z,0.99
2018-02-18T17:56:31.960Z,0.94
2018-02-18T17:59:00.681Z,0.93
2018-02-18T18:01:28.986Z,1.06
2018-02-18T18:03:57.401Z,0.94
2018-02-18T18:06:25.723Z,0.91
2018-02-18T18:08:54.801Z,1.07
2018-02-18T18:11:23.321Z,1.13
2018-02-18T18:13:52.855Z,1.36
2018-02-18T18:16:21.182Z,1.49
2018-02-18T18:18:49.852Z,1.49
2018-02-18T18:21:18.596Z,1.54
2018-02-18T18:23:46.926Z,1.64
2018-02-18T18:26:15.299Z,1.64
2018-02-18T18:28:44.024Z,1.49
2018-02-18T18:31:12.346Z,1.46
2018-02-18T18:33:40.724Z,1.46
2018-02-18T18:36:09.044Z,1.44
2018-02-18T18:38:38.021Z,1.50
2018-02-18T18:41:06.383Z,1.49
2018-02-18T18:43:34.697Z,1.50
2018-02-18T18:46:03.013Z,1.46
2018-02-18T18:48:31.380Z,1.37
2018-02-18T18:51:00.462Z,1.45
2018-02-18T18:53:29.545Z,1.51
2018-02-18T18:55:59.120Z,1.45
2018-02-18T18:58:27.536Z,1.46
2018-02-18T19:00:55.860Z,1.43
2018-02-18T19:03:24.292Z,1.43
2018-02-18T19:05:52.609Z,1.47
2018-02-18T19:08:20.933Z,1.43
2018-02-18T19:10:50.944Z,1.46
2018-02-18T19:15:54.045Z,1.54
2018-02-18T19:18:22.412Z,1.60
2018-02-18T19:20:51.721Z,1.66
2018-02-18T19:23:22.199Z,1.62
2018-02-18T19:25:50.513Z,1.56
2018-02-18T19:28:18.828Z,1.55
2018-02-18T19:30:47.222Z,1.57
2018-02-18T19:33:15.656Z,1.57
2018-02-18T19:35:44.660Z,1.58
2018-02-18T19:38:13.691Z,1.52
2018-02-18T19:40:42.068Z,1.50
2018-02-18T19:43:10.401Z,1.47
2018-02-18T19:45:38.765Z,1.52
2018-02-18T19:48:07.433Z,1.57
2018-02-18T19:50:35.749Z,1.54
2018-02-18T19:53:05.868Z,1.52
2018-02-18T19:55:34.184Z,1.49
2018-02-18T19:58:02.845Z,1.41
2018-02-18T20:00:32.152Z,1.44
2018-02-18T20:03:00.817Z,1.38
2018-02-18T20:05:30.524Z,1.43
2018-02-18T20:07:58.884Z,1.39
2018-02-18T20:10:28.158Z,1.39
2018-02-18T20:12:56.484Z,1.34
2018-02-18T20:15:25.354Z,1.34
2018-02-18T20:17:54.265Z,1.34
2018-02-18T20:20:24.724Z,1.32
2018-02-18T20:22:53.052Z,1.31
2018-02-18T20:25:21.364Z,1.28
2018-02-18T20:27:50.010Z,1.31
2018-02-18T20:30:18.824Z,1.32
2018-02-18T20:32:48.741Z,1.29
2018-02-18T20:35:17.520Z,1.31
2018-02-18T20:37:46.784Z,1.26
2018-02-18T20:40:15.181Z,1.30
2018-02-18T20:42:44.082Z,1.30
2018-02-18T20:45:12.547Z,1.31
2018-02-18T20:47:41.396Z,1.25
2018-02-18T20:50:09.712Z,1.23
2018-02-18T20:52:38.344Z,1.29
2018-02-18T20:55:06.660Z,1.26
2018-02-18T20:57:34.980Z,1.30
2018-02-18T21:00:03.364Z,1.25
2018-02-18T21:02:31.689Z,1.24
2018-02-18T21:05:00.018Z,1.27
2018-02-18T21:07:30.004Z,1.26
2018-02-18T21:09:58.385Z,1.23
2018-02-18T21:12:26.908Z,1.22
2018-02-18T21:14:55.264Z,1.18
2018-02-18T21:17:24.269Z,1.18
2018-02-18T21:19:52.589Z,1.23
2018-02-18T21:22:20.942Z,1.20
2018-02-18T21:24:49.793Z,1.20
2018-02-18T21:27:19.037Z,1.18
2018-02-18T21:29:47.777Z,1.15
2018-02-18T21:32:16.100Z,1.16
2018-02-18T21:34:49.580Z,1.17
2018-02-18T21:37:17.659Z,1.20
2018-02-18T21:39:45.985Z,1.27
2018-02-18T21:42:14.403Z,1.28
2018-02-18T21:44:42.713Z,1.30
2018-02-18T21:47:11.037Z,1.34
2018-02-18T21:49:39.392Z,1.31
2018-02-18T21:52:07.712Z,1.35
2018-02-18T21:54:36.026Z,1.37
2018-02-18T21:57:04.756Z,1.38
2018-02-18T21:59:33.220Z,1.45
2018-02-18T22:02:01.537Z,1.45
2018-02-18T22:04:29.905Z,1.34
2018-02-18T22:06:58.216Z,1.31
2018-02-18T22:09:28.907Z,1.42
2018-02-18T22:11:57.272Z,1.40
2018-02-18T22:14:26.064Z,1.35
2018-02-18T22:16:55.043Z,1.38
2018-02-18T22:19:23.352Z,1.38
2018-02-18T22:21:51.712Z,1.34
2018-02-18T22:24:20.113Z,1.30
2018-02-18T22:26:48.430Z,1.31
2018-02-18T22:29:17.392Z,1.29
2018-02-18T22:31:45.707Z,1.34
2018-02-18T22:34:14.169Z,1.30
2018-02-18T22:36:43.037Z,1.36
2018-02-18T22:39:11.348Z,1.33
2018-02-18T22:41:39.745Z,1.29
2018-02-18T22:44:08.100Z,1.19
2018-02-18T22:46:36.408Z,1.20
2018-02-18T22:49:05.004Z,1.19
2018-02-18T22:51:33.344Z,1.22
2018-02-18T22:54:01.692Z,1.21
2018-02-18T22:56:30.296Z,1.14
2018-02-18T22:58:58.661Z,1.21
2018-02-18T23:01:27.750Z,1.30
2018-02-18T23:03:57.499Z,1.28
2018-02-18T23:06:25.892Z,1.03
2018-02-18T23:08:54.228Z,0.85
2018-02-18T23:11:23.300Z,0.96
2018-02-18T23:13:51.648Z,1.02
2018-02-18T23:16:20.043Z,1.02
2018-02-18T23:18:48.347Z,1.09
2018-02-18T23:21:16.721Z,1.07
2018-02-18T23:23:45.324Z,1.11
2018-02-18T23:26:14.404Z,1.22
2018-02-18T23:28:42.848Z,1.25
2018-02-18T23:31:11.156Z,1.23
2018-02-18T23:33:39.484Z,1.25
2018-02-18T23:36:07.851Z,1.21
2018-02-18T23:38:36.156Z,1.03
2018-02-18T23:41:04.465Z,1.15
2018-02-18T23:43:32.832Z,1.30
2018-02-18T23:46:01.159Z,1.25
2018-02-18T23:48:29.480Z,1.23
2018-02-18T23:50:57.888Z,1.23
2018-02-18T23:53:26.208Z,1.31
2018-02-18T23:55:54.519Z,1.19
2018-02-18T23:58:22.880Z,1.22
